sensor_id;sensor_type;location;lat;lon;timestamp;P1;durP1;ratioP1;P2;durP2;ratioP2
70705;SDS011;59320;52.316;10.870;2023-05-25T00:01:42;15.43;;;5.70;;
70705;SDS011;59320;52.316;10.870;2023-05-25T00:04:13;16.20;;;6.28;;
70705;SDS011;59320;52.316;10.870;2023-05-25T00:06:41;14.05;;;6.22;;
70705;SDS011;59320;52.316;10.870;2023-05-25T00:09:11;19.13;;;7.03;;
70705;SDS011;59320;52.316;10.870;2023-05-25T00:11:38;14.90;;;6.63;;
70705;SDS011;59320;52.316;10.870;2023-05-25T00:14:07;17.98;;;7.00;;
70705;SDS011;59320;52.316;10.870;2023-05-25T00:16:36;14.23;;;6.65;;
70705;SDS011;59320;52.316;10.870;2023-05-25T00:19:05;9.52;;;5.50;;
70705;SDS011;59320;52.316;10.870;2023-05-25T00:21:34;13.25;;;5.97;;
70705;SDS011;59320;52.316;10.870;2023-05-25T00:24:03;16.83;;;6.82;;
70705;SDS011;59320;52.316;10.870;2023-05-25T00:26:30;15.40;;;6.43;;
70705;SDS011;59320;52.316;10.870;2023-05-25T00:28:57;12.15;;;6.65;;
70705;SDS011;59320;52.316;10.870;2023-05-25T00:31:25;16.92;;;7.30;;
70705;SDS011;59320;52.316;10.870;2023-05-25T00:33:53;13.13;;;6.30;;
70705;SDS011;59320;52.316;10.870;2023-05-25T00:36:20;13.18;;;6.80;;
70705;SDS011;59320;52.316;10.870;2023-05-25T00:38:47;20.48;;;7.20;;
70705;SDS011;59320;52.316;10.870;2023-05-25T00:41:15;20.33;;;7.43;;
70705;SDS011;59320;52.316;10.870;2023-05-25T00:43:43;14.35;;;7.28;;
70705;SDS011;59320;52.316;10.870;2023-05-25T00:46:11;16.15;;;7.47;;
70705;SDS011;59320;52.316;10.870;2023-05-25T00:48:42;17.17;;;7.22;;
70705;SDS011;59320;52.316;10.870;2023-05-25T00:51:13;13.45;;;7.70;;
70705;SDS011;59320;52.316;10.870;2023-05-25T00:53:41;18.85;;;7.38;;
70705;SDS011;59320;52.316;10.870;2023-05-25T00:56:09;17.17;;;7.68;;
70705;SDS011;59320;52.316;10.870;2023-05-25T00:58:41;17.38;;;7.95;;
70705;SDS011;59320;52.316;10.870;2023-05-25T01:01:11;20.33;;;8.20;;
70705;SDS011;59320;52.316;10.870;2023-05-25T01:03:40;18.58;;;8.23;;
70705;SDS011;59320;52.316;10.870;2023-05-25T01:06:13;22.48;;;8.55;;
70705;SDS011;59320;52.316;10.870;2023-05-25T01:08:43;18.20;;;7.65;;
70705;SDS011;59320;52.316;10.870;2023-05-25T01:11:15;17.02;;;7.57;;
70705;SDS011;59320;52.316;10.870;2023-05-25T01:13:46;17.80;;;7.90;;
70705;SDS011;59320;52.316;10.870;2023-05-25T01:16:15;19.98;;;8.52;;
70705;SDS011;59320;52.316;10.870;2023-05-25T01:18:42;18.70;;;7.82;;
70705;SDS011;59320;52.316;10.870;2023-05-25T01:21:13;18.33;;;8.93;;
70705;SDS011;59320;52.316;10.870;2023-05-25T01:23:46;19.58;;;8.73;;
70705;SDS011;59320;52.316;10.870;2023-05-25T01:26:22;13.70;;;7.10;;
70705;SDS011;59320;52.316;10.870;2023-05-25T01:31:23;17.98;;;9.38;;
70705;SDS011;59320;52.316;10.870;2023-05-25T01:33:50;17.30;;;9.30;;
70705;SDS011;59320;52.316;10.870;2023-05-25T01:36:20;18.42;;;8.55;;
70705;SDS011;59320;52.316;10.870;2023-05-25T01:38:47;16.73;;;8.10;;
70705;SDS011;59320;52.316;10.870;2023-05-25T01:41:14;15.88;;;7.70;;
70705;SDS011;59320;52.316;10.870;2023-05-25T01:43:42;17.17;;;7.57;;
70705;SDS011;59320;52.316;10.870;2023-05-25T01:46:11;17.77;;;7.75;;
70705;SDS011;59320;52.316;10.870;2023-05-25T01:48:50;17.73;;;8.63;;
70705;SDS011;59320;52.316;10.870;2023-05-25T01:51:24;17.27;;;9.52;;
70705;SDS011;59320;52.316;10.870;2023-05-25T01:53:59;16.73;;;8.93;;
70705;SDS011;59320;52.316;10.870;2023-05-25T01:58:58;19.73;;;9.48;;
70705;SDS011;59320;52.316;10.870;2023-05-25T02:01:28;16.48;;;8.52;;
70705;SDS011;59320;52.316;10.870;2023-05-25T02:03:57;20.77;;;9.02;;
70705;SDS011;59320;52.316;10.870;2023-05-25T02:06:27;25.35;;;10.10;;
70705;SDS011;59320;52.316;10.870;2023-05-25T02:08:56;16.75;;;9.07;;
70705;SDS011;59320;52.316;10.870;2023-05-25T02:11:23;18.90;;;9.10;;
70705;SDS011;59320;52.316;10.870;2023-05-25T02:13:50;19.08;;;9.55;;
70705;SDS011;59320;52.316;10.870;2023-05-25T02:16:17;24.38;;;11.43;;
70705;SDS011;59320;52.316;10.870;2023-05-25T02:18:44;19.70;;;9.95;;
70705;SDS011;59320;52.316;10.870;2023-05-25T02:21:11;15.05;;;9.02;;
70705;SDS011;59320;52.316;10.870;2023-05-25T02:23:40;17.77;;;9.15;;
70705;SDS011;59320;52.316;10.870;2023-05-25T02:26:07;16.20;;;9.35;;
70705;SDS011;59320;52.316;10.870;2023-05-25T02:28:34;18.73;;;9.77;;
70705;SDS011;59320;52.316;10.870;2023-05-25T02:31:01;19.27;;;9.90;;
70705;SDS011;59320;52.316;10.870;2023-05-25T02:33:28;18.38;;;9.63;;
70705;SDS011;59320;52.316;10.870;2023-05-25T02:35:56;19.10;;;9.70;;
70705;SDS011;59320;52.316;10.870;2023-05-25T02:38:23;15.85;;;9.60;;
70705;SDS011;59320;52.316;10.870;2023-05-25T02:40:53;19.80;;;9.93;;
70705;SDS011;59320;52.316;10.870;2023-05-25T02:43:22;14.57;;;9.45;;
70705;SDS011;59320;52.316;10.870;2023-05-25T02:45:49;18.92;;;9.95;;
70705;SDS011;59320;52.316;10.870;2023-05-25T02:48:16;15.77;;;8.75;;
70705;SDS011;59320;52.316;10.870;2023-05-25T02:50:43;17.65;;;9.27;;
70705;SDS011;59320;52.316;10.870;2023-05-25T02:53:12;18.25;;;9.40;;
70705;SDS011;59320;52.316;10.870;2023-05-25T02:55:39;17.38;;;9.43;;
70705;SDS011;59320;52.316;10.870;2023-05-25T02:58:12;17.77;;;10.48;;
70705;SDS011;59320;52.316;10.870;2023-05-25T03:00:54;22.08;;;10.40;;
70705;SDS011;59320;52.316;10.870;2023-05-25T03:03:24;26.27;;;12.00;;
70705;SDS011;59320;52.316;10.870;2023-05-25T03:05:51;23.23;;;11.05;;
70705;SDS011;59320;52.316;10.870;2023-05-25T03:08:18;18.02;;;11.00;;
70705;SDS011;59320;52.316;10.870;2023-05-25T03:10:46;18.63;;;11.07;;
70705;SDS011;59320;52.316;10.870;2023-05-25T03:13:14;27.85;;;13.43;;
70705;SDS011;59320;52.316;10.870;2023-05-25T03:15:41;17.00;;;10.95;;
70705;SDS011;59320;52.316;10.870;2023-05-25T03:18:09;19.13;;;11.27;;
70705;SDS011;59320;52.316;10.870;2023-05-25T03:20:37;17.65;;;10.32;;
70705;SDS011;59320;52.316;10.870;2023-05-25T03:23:05;16.38;;;9.30;;
70705;SDS011;59320;52.316;10.870;2023-05-25T03:25:33;14.75;;;9.32;;
70705;SDS011;59320;52.316;10.870;2023-05-25T03:28:01;14.30;;;8.80;;
70705;SDS011;59320;52.316;10.870;2023-05-25T03:30:29;16.27;;;10.13;;
70705;SDS011;59320;52.316;10.870;2023-05-25T03:32:56;17.13;;;9.60;;
70705;SDS011;59320;52.316;10.870;2023-05-25T03:35:28;16.10;;;10.25;;
70705;SDS011;59320;52.316;10.870;2023-05-25T03:37:56;17.98;;;9.82;;
70705;SDS011;59320;52.316;10.870;2023-05-25T03:40:23;16.33;;;10.10;;
70705;SDS011;59320;52.316;10.870;2023-05-25T03:42:51;18.15;;;10.50;;
70705;SDS011;59320;52.316;10.870;2023-05-25T03:45:19;20.83;;;9.88;;
70705;SDS011;59320;52.316;10.870;2023-05-25T03:47:48;19.30;;;11.02;;
70705;SDS011;59320;52.316;10.870;2023-05-25T03:50:15;19.63;;;11.60;;
70705;SDS011;59320;52.316;10.870;2023-05-25T03:52:42;16.92;;;11.32;;
70705;SDS011;59320;52.316;10.870;2023-05-25T03:55:09;19.90;;;10.60;;
70705;SDS011;59320;52.316;10.870;2023-05-25T03:57:38;23.60;;;12.70;;
70705;SDS011;59320;52.316;10.870;2023-05-25T04:00:05;20.65;;;12.52;;
70705;SDS011;59320;52.316;10.870;2023-05-25T04:02:38;24.05;;;13.75;;
70705;SDS011;59320;52.316;10.870;2023-05-25T04:05:06;24.42;;;13.80;;
70705;SDS011;59320;52.316;10.870;2023-05-25T04:07:34;19.80;;;13.48;;
70705;SDS011;59320;52.316;10.870;2023-05-25T04:10:02;17.83;;;11.57;;
70705;SDS011;59320;52.316;10.870;2023-05-25T04:12:29;24.73;;;13.25;;
70705;SDS011;59320;52.316;10.870;2023-05-25T04:14:56;24.17;;;13.68;;
70705;SDS011;59320;52.316;10.870;2023-05-25T04:17:24;33.45;;;15.05;;
70705;SDS011;59320;52.316;10.870;2023-05-25T04:19:52;28.55;;;13.15;;
70705;SDS011;59320;52.316;10.870;2023-05-25T04:22:21;62.72;;;14.75;;
70705;SDS011;59320;52.316;10.870;2023-05-25T04:24:49;20.33;;;14.70;;
70705;SDS011;59320;52.316;10.870;2023-05-25T04:27:16;21.23;;;12.95;;
70705;SDS011;59320;52.316;10.870;2023-05-25T04:29:45;74.05;;;15.02;;
70705;SDS011;59320;52.316;10.870;2023-05-25T04:32:40;18.67;;;12.55;;
70705;SDS011;59320;52.316;10.870;2023-05-25T04:35:31;17.95;;;12.55;;
70705;SDS011;59320;52.316;10.870;2023-05-25T04:38:00;22.05;;;13.02;;
70705;SDS011;59320;52.316;10.870;2023-05-25T04:40:28;15.98;;;13.32;;
70705;SDS011;59320;52.316;10.870;2023-05-25T04:42:57;19.13;;;12.15;;
70705;SDS011;59320;52.316;10.870;2023-05-25T04:45:24;17.48;;;12.50;;
70705;SDS011;59320;52.316;10.870;2023-05-25T04:47:54;25.90;;;13.15;;
70705;SDS011;59320;52.316;10.870;2023-05-25T04:50:22;19.52;;;13.32;;
70705;SDS011;59320;52.316;10.870;2023-05-25T04:52:50;18.70;;;12.93;;
70705;SDS011;59320;52.316;10.870;2023-05-25T04:55:19;19.35;;;12.45;;
70705;SDS011;59320;52.316;10.870;2023-05-25T04:57:49;15.85;;;12.40;;
70705;SDS011;59320;52.316;10.870;2023-05-25T05:00:17;19.98;;;12.48;;
70705;SDS011;59320;52.316;10.870;2023-05-25T05:02:46;20.10;;;12.43;;
70705;SDS011;59320;52.316;10.870;2023-05-25T05:05:14;20.45;;;12.73;;
70705;SDS011;59320;52.316;10.870;2023-05-25T05:07:41;22.73;;;12.98;;
70705;SDS011;59320;52.316;10.870;2023-05-25T05:10:09;19.00;;;11.90;;
70705;SDS011;59320;52.316;10.870;2023-05-25T05:12:41;17.67;;;12.45;;
70705;SDS011;59320;52.316;10.870;2023-05-25T05:15:09;32.72;;;14.07;;
70705;SDS011;59320;52.316;10.870;2023-05-25T05:17:38;21.60;;;13.68;;
70705;SDS011;59320;52.316;10.870;2023-05-25T05:20:07;23.92;;;13.80;;
70705;SDS011;59320;52.316;10.870;2023-05-25T05:22:35;22.63;;;13.80;;
70705;SDS011;59320;52.316;10.870;2023-05-25T05:25:03;21.55;;;13.55;;
70705;SDS011;59320;52.316;10.870;2023-05-25T05:27:31;35.83;;;14.70;;
70705;SDS011;59320;52.316;10.870;2023-05-25T05:30:05;17.13;;;12.70;;
70705;SDS011;59320;52.316;10.870;2023-05-25T05:32:33;19.40;;;12.35;;
70705;SDS011;59320;52.316;10.870;2023-05-25T05:35:01;20.77;;;13.48;;
70705;SDS011;59320;52.316;10.870;2023-05-25T05:37:41;18.83;;;13.77;;
70705;SDS011;59320;52.316;10.870;2023-05-25T05:40:08;20.20;;;13.20;;
70705;SDS011;59320;52.316;10.870;2023-05-25T05:42:38;20.70;;;13.35;;
70705;SDS011;59320;52.316;10.870;2023-05-25T05:45:09;23.65;;;14.40;;
70705;SDS011;59320;52.316;10.870;2023-05-25T05:47:36;16.67;;;12.93;;
70705;SDS011;59320;52.316;10.870;2023-05-25T05:50:04;26.42;;;14.55;;
70705;SDS011;59320;52.316;10.870;2023-05-25T05:52:33;31.02;;;14.07;;
70705;SDS011;59320;52.316;10.870;2023-05-25T05:55:01;22.05;;;14.27;;
70705;SDS011;59320;52.316;10.870;2023-05-25T05:57:29;25.73;;;14.77;;
70705;SDS011;59320;52.316;10.870;2023-05-25T05:59:56;23.98;;;15.40;;
70705;SDS011;59320;52.316;10.870;2023-05-25T06:02:25;20.30;;;15.10;;
70705;SDS011;59320;52.316;10.870;2023-05-25T06:04:52;22.67;;;16.65;;
70705;SDS011;59320;52.316;10.870;2023-05-25T06:07:20;22.10;;;17.15;;
70705;SDS011;59320;52.316;10.870;2023-05-25T06:09:48;27.45;;;18.45;;
70705;SDS011;59320;52.316;10.870;2023-05-25T06:12:15;23.67;;;17.17;;
70705;SDS011;59320;52.316;10.870;2023-05-25T06:14:42;35.35;;;21.52;;
70705;SDS011;59320;52.316;10.870;2023-05-25T06:17:13;27.88;;;20.40;;
70705;SDS011;59320;52.316;10.870;2023-05-25T06:19:42;30.98;;;20.40;;
70705;SDS011;59320;52.316;10.870;2023-05-25T06:22:09;26.67;;;19.70;;
70705;SDS011;59320;52.316;10.870;2023-05-25T06:24:36;31.98;;;19.27;;
70705;SDS011;59320;52.316;10.870;2023-05-25T06:27:04;28.80;;;18.50;;
70705;SDS011;59320;52.316;10.870;2023-05-25T06:29:31;28.10;;;17.50;;
70705;SDS011;59320;52.316;10.870;2023-05-25T06:31:58;33.30;;;19.45;;
70705;SDS011;59320;52.316;10.870;2023-05-25T06:34:25;30.38;;;18.98;;
70705;SDS011;59320;52.316;10.870;2023-05-25T06:36:54;31.55;;;18.92;;
70705;SDS011;59320;52.316;10.870;2023-05-25T06:39:21;33.33;;;18.95;;
70705;SDS011;59320;52.316;10.870;2023-05-25T06:41:48;29.70;;;18.83;;
70705;SDS011;59320;52.316;10.870;2023-05-25T06:44:26;33.22;;;19.48;;
70705;SDS011;59320;52.316;10.870;2023-05-25T06:46:53;34.30;;;19.48;;
70705;SDS011;59320;52.316;10.870;2023-05-25T06:49:20;29.98;;;17.75;;
70705;SDS011;59320;52.316;10.870;2023-05-25T06:51:47;27.70;;;17.27;;
70705;SDS011;59320;52.316;10.870;2023-05-25T06:54:17;27.85;;;16.45;;
70705;SDS011;59320;52.316;10.870;2023-05-25T06:56:44;27.77;;;15.82;;
70705;SDS011;59320;52.316;10.870;2023-05-25T06:59:16;28.67;;;17.58;;
70705;SDS011;59320;52.316;10.870;2023-05-25T07:01:48;28.17;;;17.73;;
70705;SDS011;59320;52.316;10.870;2023-05-25T07:04:15;25.55;;;16.17;;
70705;SDS011;59320;52.316;10.870;2023-05-25T07:06:44;23.98;;;15.35;;
70705;SDS011;59320;52.316;10.870;2023-05-25T07:09:12;24.70;;;16.48;;
70705;SDS011;59320;52.316;10.870;2023-05-25T07:11:41;23.88;;;15.88;;
70705;SDS011;59320;52.316;10.870;2023-05-25T07:14:08;28.10;;;16.45;;
70705;SDS011;59320;52.316;10.870;2023-05-25T07:16:36;23.30;;;15.25;;
70705;SDS011;59320;52.316;10.870;2023-05-25T07:19:03;25.27;;;14.80;;
70705;SDS011;59320;52.316;10.870;2023-05-25T07:21:31;26.27;;;15.70;;
70705;SDS011;59320;52.316;10.870;2023-05-25T07:23:58;23.58;;;14.45;;
70705;SDS011;59320;52.316;10.870;2023-05-25T07:26:25;27.45;;;16.00;;
70705;SDS011;59320;52.316;10.870;2023-05-25T07:28:54;22.20;;;14.20;;
70705;SDS011;59320;52.316;10.870;2023-05-25T07:31:21;21.75;;;14.00;;
70705;SDS011;59320;52.316;10.870;2023-05-25T07:33:49;23.33;;;14.05;;
70705;SDS011;59320;52.316;10.870;2023-05-25T07:36:17;20.75;;;13.25;;
70705;SDS011;59320;52.316;10.870;2023-05-25T07:41:16;22.65;;;14.73;;
70705;SDS011;59320;52.316;10.870;2023-05-25T07:43:43;19.23;;;13.52;;
70705;SDS011;59320;52.316;10.870;2023-05-25T07:46:11;19.88;;;14.43;;
70705;SDS011;59320;52.316;10.870;2023-05-25T07:48:38;21.10;;;13.63;;
70705;SDS011;59320;52.316;10.870;2023-05-25T07:51:06;22.90;;;14.05;;
70705;SDS011;59320;52.316;10.870;2023-05-25T07:53:35;20.08;;;12.95;;
70705;SDS011;59320;52.316;10.870;2023-05-25T07:56:02;23.25;;;14.43;;
70705;SDS011;59320;52.316;10.870;2023-05-25T07:58:29;19.52;;;13.07;;
70705;SDS011;59320;52.316;10.870;2023-05-25T08:00:56;22.02;;;12.98;;
70705;SDS011;59320;52.316;10.870;2023-05-25T08:03:25;20.88;;;13.55;;
70705;SDS011;59320;52.316;10.870;2023-05-25T08:05:52;19.02;;;12.55;;
70705;SDS011;59320;52.316;10.870;2023-05-25T08:08:19;17.17;;;11.07;;
70705;SDS011;59320;52.316;10.870;2023-05-25T08:10:46;23.00;;;12.70;;
70705;SDS011;59320;52.316;10.870;2023-05-25T08:13:13;18.20;;;11.77;;
70705;SDS011;59320;52.316;10.870;2023-05-25T08:15:41;18.40;;;11.60;;
70705;SDS011;59320;52.316;10.870;2023-05-25T08:18:08;18.38;;;11.90;;
70705;SDS011;59320;52.316;10.870;2023-05-25T08:20:36;18.48;;;10.93;;
70705;SDS011;59320;52.316;10.870;2023-05-25T08:23:04;20.13;;;11.13;;
70705;SDS011;59320;52.316;10.870;2023-05-25T08:25:33;19.23;;;11.52;;
70705;SDS011;59320;52.316;10.870;2023-05-25T08:28:00;15.70;;;11.13;;
70705;SDS011;59320;52.316;10.870;2023-05-25T08:30:27;16.98;;;10.52;;
70705;SDS011;59320;52.316;10.870;2023-05-25T08:32:55;16.27;;;11.13;;
70705;SDS011;59320;52.316;10.870;2023-05-25T08:35:22;15.32;;;10.55;;
70705;SDS011;59320;52.316;10.870;2023-05-25T08:37:51;16.63;;;10.10;;
70705;SDS011;59320;52.316;10.870;2023-05-25T08:40:19;17.05;;;10.65;;
70705;SDS011;59320;52.316;10.870;2023-05-25T08:42:49;18.30;;;10.95;;
70705;SDS011;59320;52.316;10.870;2023-05-25T08:45:16;17.88;;;11.07;;
70705;SDS011;59320;52.316;10.870;2023-05-25T08:47:43;19.42;;;12.02;;
70705;SDS011;59320;52.316;10.870;2023-05-25T08:50:13;16.08;;;11.48;;
70705;SDS011;59320;52.316;10.870;2023-05-25T08:52:43;20.25;;;11.43;;
70705;SDS011;59320;52.316;10.870;2023-05-25T08:55:12;17.38;;;11.57;;
70705;SDS011;59320;52.316;10.870;2023-05-25T08:57:44;36.00;;;19.88;;
70705;SDS011;59320;52.316;10.870;2023-05-25T09:02:48;38.72;;;18.80;;
70705;SDS011;59320;52.316;10.870;2023-05-25T09:05:19;30.80;;;18.10;;
70705;SDS011;59320;52.316;10.870;2023-05-25T09:07:47;16.65;;;10.52;;
70705;SDS011;59320;52.316;10.870;2023-05-25T09:10:20;17.42;;;11.98;;
70705;SDS011;59320;52.316;10.870;2023-05-25T09:12:49;21.10;;;11.98;;
70705;SDS011;59320;52.316;10.870;2023-05-25T09:15:17;34.92;;;17.33;;
70705;SDS011;59320;52.316;10.870;2023-05-25T09:17:45;29.95;;;15.80;;
70705;SDS011;59320;52.316;10.870;2023-05-25T09:20:13;25.48;;;13.80;;
70705;SDS011;59320;52.316;10.870;2023-05-25T09:22:41;17.63;;;12.05;;
70705;SDS011;59320;52.316;10.870;2023-05-25T09:25:10;21.73;;;13.27;;
70705;SDS011;59320;52.316;10.870;2023-05-25T09:27:41;20.25;;;12.40;;
70705;SDS011;59320;52.316;10.870;2023-05-25T09:30:10;18.75;;;11.95;;
70705;SDS011;59320;52.316;10.870;2023-05-25T09:32:37;17.23;;;11.68;;
70705;SDS011;59320;52.316;10.870;2023-05-25T09:35:05;24.33;;;14.48;;
70705;SDS011;59320;52.316;10.870;2023-05-25T09:37:34;20.73;;;12.95;;
70705;SDS011;59320;52.316;10.870;2023-05-25T09:40:01;22.27;;;13.75;;
70705;SDS011;59320;52.316;10.870;2023-05-25T09:42:29;23.80;;;14.65;;
70705;SDS011;59320;52.316;10.870;2023-05-25T09:44:58;20.55;;;13.32;;
70705;SDS011;59320;52.316;10.870;2023-05-25T09:47:25;23.10;;;13.60;;
70705;SDS011;59320;52.316;10.870;2023-05-25T09:49:53;24.92;;;14.45;;
70705;SDS011;59320;52.316;10.870;2023-05-25T09:52:21;30.52;;;18.15;;
70705;SDS011;59320;52.316;10.870;2023-05-25T09:54:49;26.42;;;15.75;;
70705;SDS011;59320;52.316;10.870;2023-05-25T09:57:18;25.08;;;15.48;;
70705;SDS011;59320;52.316;10.870;2023-05-25T09:59:45;23.48;;;14.82;;
70705;SDS011;59320;52.316;10.870;2023-05-25T10:02:14;30.58;;;18.35;;
70705;SDS011;59320;52.316;10.870;2023-05-25T10:04:41;26.98;;;17.40;;
70705;SDS011;59320;52.316;10.870;2023-05-25T10:07:09;38.00;;;21.83;;
70705;SDS011;59320;52.316;10.870;2023-05-25T10:09:37;41.15;;;21.85;;
70705;SDS011;59320;52.316;10.870;2023-05-25T10:12:06;34.50;;;20.40;;
70705;SDS011;59320;52.316;10.870;2023-05-25T10:14:34;37.40;;;23.92;;
70705;SDS011;59320;52.316;10.870;2023-05-25T10:17:03;50.78;;;29.65;;
70705;SDS011;59320;52.316;10.870;2023-05-25T10:19:35;29.98;;;20.02;;
70705;SDS011;59320;52.316;10.870;2023-05-25T10:22:07;35.22;;;22.00;;
70705;SDS011;59320;52.316;10.870;2023-05-25T10:24:42;39.78;;;26.42;;
70705;SDS011;59320;52.316;10.870;2023-05-25T10:27:13;24.80;;;14.80;;
70705;SDS011;59320;52.316;10.870;2023-05-25T10:29:44;19.00;;;13.30;;
70705;SDS011;59320;52.316;10.870;2023-05-25T10:32:13;18.02;;;12.60;;
70705;SDS011;59320;52.316;10.870;2023-05-25T10:34:42;17.05;;;12.00;;
70705;SDS011;59320;52.316;10.870;2023-05-25T10:37:10;16.98;;;11.05;;
70705;SDS011;59320;52.316;10.870;2023-05-25T10:39:40;16.77;;;11.43;;
70705;SDS011;59320;52.316;10.870;2023-05-25T10:42:08;15.90;;;10.07;;
70705;SDS011;59320;52.316;10.870;2023-05-25T10:44:37;15.35;;;10.77;;
70705;SDS011;59320;52.316;10.870;2023-05-25T10:47:06;18.58;;;11.20;;
70705;SDS011;59320;52.316;10.870;2023-05-25T10:49:49;18.40;;;11.40;;
70705;SDS011;59320;52.316;10.870;2023-05-25T10:52:18;18.02;;;10.70;;
70705;SDS011;59320;52.316;10.870;2023-05-25T10:54:47;17.80;;;9.93;;
70705;SDS011;59320;52.316;10.870;2023-05-25T10:57:17;21.40;;;10.30;;
70705;SDS011;59320;52.316;10.870;2023-05-25T10:59:48;18.38;;;10.13;;
70705;SDS011;59320;52.316;10.870;2023-05-25T11:02:15;13.90;;;9.88;;
70705;SDS011;59320;52.316;10.870;2023-05-25T11:04:47;17.63;;;8.95;;
70705;SDS011;59320;52.316;10.870;2023-05-25T11:07:17;17.10;;;10.05;;
70705;SDS011;59320;52.316;10.870;2023-05-25T11:09:57;17.85;;;10.07;;
70705;SDS011;59320;52.316;10.870;2023-05-25T11:12:24;16.33;;;8.90;;
70705;SDS011;59320;52.316;10.870;2023-05-25T11:15:07;16.67;;;9.50;;
70705;SDS011;59320;52.316;10.870;2023-05-25T11:17:43;17.83;;;9.25;;
70705;SDS011;59320;52.316;10.870;2023-05-25T11:20:28;16.08;;;8.32;;
70705;SDS011;59320;52.316;10.870;2023-05-25T11:22:58;14.23;;;8.63;;
70705;SDS011;59320;52.316;10.870;2023-05-25T11:25:45;15.55;;;8.35;;
70705;SDS011;59320;52.316;10.870;2023-05-25T11:28:12;11.40;;;8.13;;
70705;SDS011;59320;52.316;10.870;2023-05-25T11:30:40;13.85;;;8.27;;
70705;SDS011;59320;52.316;10.870;2023-05-25T11:33:07;17.55;;;8.93;;
70705;SDS011;59320;52.316;10.870;2023-05-25T11:35:35;15.85;;;9.68;;
70705;SDS011;59320;52.316;10.870;2023-05-25T11:38:06;14.07;;;9.23;;
70705;SDS011;59320;52.316;10.870;2023-05-25T11:40:34;18.90;;;11.45;;
70705;SDS011;59320;52.316;10.870;2023-05-25T11:43:01;16.55;;;9.82;;
70705;SDS011;59320;52.316;10.870;2023-05-25T11:45:30;13.60;;;8.30;;
70705;SDS011;59320;52.316;10.870;2023-05-25T11:47:58;16.33;;;9.15;;
70705;SDS011;59320;52.316;10.870;2023-05-25T11:50:25;15.35;;;8.80;;
70705;SDS011;59320;52.316;10.870;2023-05-25T11:52:53;13.90;;;8.52;;
70705;SDS011;59320;52.316;10.870;2023-05-25T11:55:22;18.00;;;9.18;;
70705;SDS011;59320;52.316;10.870;2023-05-25T11:57:55;14.35;;;8.15;;
70705;SDS011;59320;52.316;10.870;2023-05-25T12:00:25;14.55;;;8.00;;
70705;SDS011;59320;52.316;10.870;2023-05-25T12:02:52;15.05;;;8.63;;
70705;SDS011;59320;52.316;10.870;2023-05-25T12:05:21;14.80;;;7.65;;
70705;SDS011;59320;52.316;10.870;2023-05-25T12:07:48;13.07;;;7.25;;
70705;SDS011;59320;52.316;10.870;2023-05-25T12:10:16;13.95;;;6.60;;
70705;SDS011;59320;52.316;10.870;2023-05-25T12:12:46;13.55;;;7.55;;
70705;SDS011;59320;52.316;10.870;2023-05-25T12:15:14;13.90;;;8.15;;
70705;SDS011;59320;52.316;10.870;2023-05-25T12:17:43;12.02;;;7.22;;
70705;SDS011;59320;52.316;10.870;2023-05-25T12:23:06;13.93;;;7.65;;
70705;SDS011;59320;52.316;10.870;2023-05-25T12:25:34;12.13;;;7.38;;
70705;SDS011;59320;52.316;10.870;2023-05-25T12:28:14;17.08;;;7.10;;
70705;SDS011;59320;52.316;10.870;2023-05-25T12:34:01;9.32;;;6.20;;
70705;SDS011;59320;52.316;10.870;2023-05-25T12:36:39;13.85;;;7.05;;
70705;SDS011;59320;52.316;10.870;2023-05-25T12:39:11;12.52;;;6.63;;
70705;SDS011;59320;52.316;10.870;2023-05-25T12:41:42;13.50;;;7.15;;
70705;SDS011;59320;52.316;10.870;2023-05-25T12:44:25;11.40;;;7.00;;
70705;SDS011;59320;52.316;10.870;2023-05-25T12:47:08;11.95;;;6.68;;
70705;SDS011;59320;52.316;10.870;2023-05-25T12:49:38;13.90;;;6.93;;
70705;SDS011;59320;52.316;10.870;2023-05-25T12:52:09;13.45;;;7.10;;
70705;SDS011;59320;52.316;10.870;2023-05-25T12:54:40;14.85;;;7.03;;
70705;SDS011;59320;52.316;10.870;2023-05-25T12:57:11;14.07;;;7.32;;
70705;SDS011;59320;52.316;10.870;2023-05-25T12:59:42;11.35;;;6.72;;
70705;SDS011;59320;52.316;10.870;2023-05-25T13:02:10;15.60;;;7.47;;
70705;SDS011;59320;52.316;10.870;2023-05-25T13:04:38;14.68;;;7.38;;
70705;SDS011;59320;52.316;10.870;2023-05-25T13:07:07;10.35;;;6.90;;
70705;SDS011;59320;52.316;10.870;2023-05-25T13:09:34;16.25;;;7.18;;
70705;SDS011;59320;52.316;10.870;2023-05-25T13:12:02;14.68;;;7.70;;
70705;SDS011;59320;52.316;10.870;2023-05-25T13:14:29;12.07;;;6.18;;
70705;SDS011;59320;52.316;10.870;2023-05-25T13:16:57;13.10;;;7.38;;
70705;SDS011;59320;52.316;10.870;2023-05-25T13:19:24;11.15;;;6.40;;
70705;SDS011;59320;52.316;10.870;2023-05-25T13:21:52;9.75;;;5.68;;
70705;SDS011;59320;52.316;10.870;2023-05-25T13:24:20;12.85;;;6.35;;
70705;SDS011;59320;52.316;10.870;2023-05-25T13:26:48;12.07;;;6.18;;
70705;SDS011;59320;52.316;10.870;2023-05-25T13:29:15;11.77;;;5.60;;
70705;SDS011;59320;52.316;10.870;2023-05-25T13:31:45;9.80;;;6.22;;
70705;SDS011;59320;52.316;10.870;2023-05-25T13:34:13;12.77;;;6.18;;
70705;SDS011;59320;52.316;10.870;2023-05-25T13:36:40;10.88;;;5.13;;
70705;SDS011;59320;52.316;10.870;2023-05-25T13:39:09;11.98;;;6.00;;
70705;SDS011;59320;52.316;10.870;2023-05-25T13:41:38;10.98;;;5.30;;
70705;SDS011;59320;52.316;10.870;2023-05-25T13:44:06;10.40;;;5.50;;
70705;SDS011;59320;52.316;10.870;2023-05-25T13:46:36;9.13;;;5.13;;
70705;SDS011;59320;52.316;10.870;2023-05-25T13:49:03;8.27;;;5.00;;
70705;SDS011;59320;52.316;10.870;2023-05-25T13:51:32;11.60;;;6.05;;
70705;SDS011;59320;52.316;10.870;2023-05-25T13:54:00;8.68;;;4.90;;
70705;SDS011;59320;52.316;10.870;2023-05-25T13:56:27;10.70;;;4.72;;
70705;SDS011;59320;52.316;10.870;2023-05-25T13:58:54;9.23;;;5.03;;
70705;SDS011;59320;52.316;10.870;2023-05-25T14:01:23;9.40;;;4.97;;
70705;SDS011;59320;52.316;10.870;2023-05-25T14:03:53;9.95;;;4.82;;
70705;SDS011;59320;52.316;10.870;2023-05-25T14:06:22;6.50;;;4.28;;
70705;SDS011;59320;52.316;10.870;2023-05-25T14:08:57;7.15;;;4.05;;
70705;SDS011;59320;52.316;10.870;2023-05-25T14:11:29;8.45;;;4.13;;
70705;SDS011;59320;52.316;10.870;2023-05-25T14:14:04;7.32;;;4.25;;
70705;SDS011;59320;52.316;10.870;2023-05-25T14:16:32;6.50;;;3.33;;
70705;SDS011;59320;52.316;10.870;2023-05-25T14:19:02;7.32;;;3.75;;
70705;SDS011;59320;52.316;10.870;2023-05-25T14:21:29;8.18;;;3.83;;
70705;SDS011;59320;52.316;10.870;2023-05-25T14:23:58;4.28;;;3.03;;
70705;SDS011;59320;52.316;10.870;2023-05-25T14:29:26;5.30;;;2.90;;
70705;SDS011;59320;52.316;10.870;2023-05-25T14:31:53;6.07;;;2.92;;
70705;SDS011;59320;52.316;10.870;2023-05-25T14:34:21;4.97;;;3.00;;
70705;SDS011;59320;52.316;10.870;2023-05-25T14:36:48;5.15;;;2.80;;
70705;SDS011;59320;52.316;10.870;2023-05-25T14:41:47;4.55;;;2.72;;
70705;SDS011;59320;52.316;10.870;2023-05-25T14:44:14;5.90;;;3.10;;
70705;SDS011;59320;52.316;10.870;2023-05-25T14:46:41;3.97;;;2.92;;
70705;SDS011;59320;52.316;10.870;2023-05-25T14:49:08;6.40;;;3.17;;